sensor_id;sensor_type;location;lat;lon;timestamp;P1;durP1;ratioP1;P2;durP2;ratioP2
5869;SDS011;2961;47.702;9.410;2022-11-23T00:00:25;4.83;;;1.53;;
5869;SDS011;2961;47.702;9.410;2022-11-23T00:02:53;1.87;;;1.53;;
5869;SDS011;2961;47.702;9.410;2022-11-23T00:05:20;4.10;;;1.87;;
5869;SDS011;2961;47.702;9.410;2022-11-23T00:07:47;2.37;;;1.90;;
5869;SDS011;2961;47.702;9.410;2022-11-23T00:10:14;1.40;;;1.30;;
5869;SDS011;2961;47.702;9.410;2022-11-23T00:12:42;8.73;;;1.87;;
5869;SDS011;2961;47.702;9.410;2022-11-23T00:15:10;2.87;;;1.73;;
5869;SDS011;2961;47.702;9.410;2022-11-23T00:17:39;2.27;;;1.40;;
5869;SDS011;2961;47.702;9.410;2022-11-23T00:20:07;4.50;;;1.80;;
5869;SDS011;2961;47.702;9.410;2022-11-23T00:22:34;2.80;;;1.30;;
5869;SDS011;2961;47.702;9.410;2022-11-23T00:25:01;1.60;;;1.50;;
5869;SDS011;2961;47.702;9.410;2022-11-23T00:27:28;1.60;;;1.50;;
5869;SDS011;2961;47.702;9.410;2022-11-23T00:29:54;1.97;;;0.97;;
5869;SDS011;2961;47.702;9.410;2022-11-23T00:32:21;5.33;;;2.27;;
5869;SDS011;2961;47.702;9.410;2022-11-23T00:34:49;1.87;;;1.73;;
5869;SDS011;2961;47.702;9.410;2022-11-23T00:37:16;1.80;;;1.33;;
5869;SDS011;2961;47.702;9.410;2022-11-23T00:39:43;3.10;;;1.20;;
5869;SDS011;2961;47.702;9.410;2022-11-23T00:42:09;2.93;;;1.97;;
5869;SDS011;2961;47.702;9.410;2022-11-23T00:44:36;11.70;;;1.80;;
5869;SDS011;2961;47.702;9.410;2022-11-23T00:47:03;5.30;;;1.33;;
5869;SDS011;2961;47.702;9.410;2022-11-23T00:49:30;1.70;;;1.60;;
5869;SDS011;2961;47.702;9.410;2022-11-23T00:51:58;4.73;;;1.33;;
5869;SDS011;2961;47.702;9.410;2022-11-23T00:54:25;2.53;;;1.30;;
5869;SDS011;2961;47.702;9.410;2022-11-23T00:56:51;1.47;;;1.47;;
5869;SDS011;2961;47.702;9.410;2022-11-23T00:59:18;4.70;;;1.90;;
5869;SDS011;2961;47.702;9.410;2022-11-23T01:01:45;4.50;;;1.77;;
5869;SDS011;2961;47.702;9.410;2022-11-23T01:04:14;5.73;;;2.00;;
5869;SDS011;2961;47.702;9.410;2022-11-23T01:06:41;2.60;;;1.47;;
5869;SDS011;2961;47.702;9.410;2022-11-23T01:09:11;4.57;;;1.93;;
5869;SDS011;2961;47.702;9.410;2022-11-23T01:11:40;3.23;;;1.63;;
5869;SDS011;2961;47.702;9.410;2022-11-23T01:14:07;3.80;;;1.53;;
5869;SDS011;2961;47.702;9.410;2022-11-23T01:16:34;1.53;;;1.40;;
5869;SDS011;2961;47.702;9.410;2022-11-23T01:19:04;2.60;;;1.30;;
5869;SDS011;2961;47.702;9.410;2022-11-23T01:21:32;2.00;;;1.90;;
5869;SDS011;2961;47.702;9.410;2022-11-23T01:24:02;3.40;;;1.50;;
5869;SDS011;2961;47.702;9.410;2022-11-23T01:26:31;3.63;;;1.53;;
5869;SDS011;2961;47.702;9.410;2022-11-23T01:28:58;5.10;;;1.07;;
5869;SDS011;2961;47.702;9.410;2022-11-23T01:31:25;2.43;;;1.10;;
5869;SDS011;2961;47.702;9.410;2022-11-23T01:33:52;8.07;;;3.90;;
5869;SDS011;2961;47.702;9.410;2022-11-23T01:36:20;2.10;;;1.27;;
5869;SDS011;2961;47.702;9.410;2022-11-23T01:38:50;2.60;;;1.70;;
5869;SDS011;2961;47.702;9.410;2022-11-23T01:41:18;4.70;;;1.43;;
5869;SDS011;2961;47.702;9.410;2022-11-23T01:43:48;2.83;;;1.37;;
5869;SDS011;2961;47.702;9.410;2022-11-23T01:46:15;3.70;;;1.33;;
5869;SDS011;2961;47.702;9.410;2022-11-23T01:48:43;1.27;;;1.20;;
5869;SDS011;2961;47.702;9.410;2022-11-23T01:51:13;2.77;;;1.10;;
5869;SDS011;2961;47.702;9.410;2022-11-23T01:53:43;5.27;;;1.43;;
5869;SDS011;2961;47.702;9.410;2022-11-23T01:56:13;5.27;;;1.60;;
5869;SDS011;2961;47.702;9.410;2022-11-23T01:58:42;5.30;;;1.17;;
5869;SDS011;2961;47.702;9.410;2022-11-23T02:01:13;1.00;;;1.00;;
5869;SDS011;2961;47.702;9.410;2022-11-23T02:03:41;3.23;;;1.20;;
5869;SDS011;2961;47.702;9.410;2022-11-23T02:06:10;1.50;;;1.40;;
5869;SDS011;2961;47.702;9.410;2022-11-23T02:08:40;1.10;;;1.10;;
5869;SDS011;2961;47.702;9.410;2022-11-23T02:11:08;2.40;;;1.00;;
5869;SDS011;2961;47.702;9.410;2022-11-23T02:13:36;2.60;;;1.00;;
5869;SDS011;2961;47.702;9.410;2022-11-23T02:16:03;6.10;;;1.63;;
5869;SDS011;2961;47.702;9.410;2022-11-23T02:18:32;4.10;;;1.10;;
5869;SDS011;2961;47.702;9.410;2022-11-23T02:21:00;1.80;;;1.70;;
5869;SDS011;2961;47.702;9.410;2022-11-23T02:23:31;5.03;;;1.40;;
5869;SDS011;2961;47.702;9.410;2022-11-23T02:26:03;1.33;;;1.23;;
5869;SDS011;2961;47.702;9.410;2022-11-23T02:28:34;3.90;;;1.40;;
5869;SDS011;2961;47.702;9.410;2022-11-23T02:31:04;2.10;;;1.33;;
5869;SDS011;2961;47.702;9.410;2022-11-23T02:33:30;2.00;;;1.27;;
5869;SDS011;2961;47.702;9.410;2022-11-23T02:35:58;4.00;;;1.30;;
5869;SDS011;2961;47.702;9.410;2022-11-23T02:38:27;6.10;;;2.80;;
5869;SDS011;2961;47.702;9.410;2022-11-23T02:40:56;2.80;;;1.80;;
5869;SDS011;2961;47.702;9.410;2022-11-23T02:43:24;2.37;;;2.17;;
5869;SDS011;2961;47.702;9.410;2022-11-23T02:45:52;2.43;;;1.83;;
5869;SDS011;2961;47.702;9.410;2022-11-23T02:48:20;3.00;;;1.67;;
5869;SDS011;2961;47.702;9.410;2022-11-23T02:50:47;6.80;;;2.40;;
5869;SDS011;2961;47.702;9.410;2022-11-23T02:53:14;3.23;;;1.47;;
5869;SDS011;2961;47.702;9.410;2022-11-23T02:55:42;2.00;;;1.90;;
5869;SDS011;2961;47.702;9.410;2022-11-23T02:58:09;3.30;;;1.67;;
5869;SDS011;2961;47.702;9.410;2022-11-23T03:00:37;4.00;;;1.60;;
5869;SDS011;2961;47.702;9.410;2022-11-23T03:03:04;1.40;;;1.30;;
5869;SDS011;2961;47.702;9.410;2022-11-23T03:05:31;2.70;;;1.40;;
5869;SDS011;2961;47.702;9.410;2022-11-23T03:07:58;1.13;;;1.13;;
5869;SDS011;2961;47.702;9.410;2022-11-23T03:10:24;4.27;;;1.67;;
5869;SDS011;2961;47.702;9.410;2022-11-23T03:12:52;1.37;;;1.00;;
5869;SDS011;2961;47.702;9.410;2022-11-23T03:15:20;2.20;;;1.03;;
5869;SDS011;2961;47.702;9.410;2022-11-23T03:17:48;0.90;;;0.90;;
5869;SDS011;2961;47.702;9.410;2022-11-23T03:20:15;7.40;;;1.63;;
5869;SDS011;2961;47.702;9.410;2022-11-23T03:22:42;2.07;;;1.40;;
5869;SDS011;2961;47.702;9.410;2022-11-23T03:25:09;1.67;;;1.20;;
5869;SDS011;2961;47.702;9.410;2022-11-23T03:27:36;1.40;;;1.30;;
5869;SDS011;2961;47.702;9.410;2022-11-23T03:30:04;3.33;;;1.73;;
5869;SDS011;2961;47.702;9.410;2022-11-23T03:32:32;1.47;;;1.47;;
5869;SDS011;2961;47.702;9.410;2022-11-23T03:35:00;4.70;;;1.50;;
5869;SDS011;2961;47.702;9.410;2022-11-23T03:37:27;2.40;;;1.40;;
5869;SDS011;2961;47.702;9.410;2022-11-23T03:39:54;3.33;;;1.43;;
5869;SDS011;2961;47.702;9.410;2022-11-23T03:42:20;2.60;;;1.20;;
5869;SDS011;2961;47.702;9.410;2022-11-23T03:44:47;1.00;;;1.00;;
5869;SDS011;2961;47.702;9.410;2022-11-23T03:47:14;3.47;;;1.33;;
5869;SDS011;2961;47.702;9.410;2022-11-23T03:49:41;1.87;;;1.37;;
5869;SDS011;2961;47.702;9.410;2022-11-23T03:52:09;4.90;;;1.80;;
5869;SDS011;2961;47.702;9.410;2022-11-23T03:54:36;3.43;;;1.53;;
5869;SDS011;2961;47.702;9.410;2022-11-23T03:57:02;1.60;;;1.50;;
5869;SDS011;2961;47.702;9.410;2022-11-23T03:59:29;1.50;;;1.40;;
5869;SDS011;2961;47.702;9.410;2022-11-23T04:01:56;3.90;;;2.00;;
5869;SDS011;2961;47.702;9.410;2022-11-23T04:04:23;1.40;;;1.20;;
5869;SDS011;2961;47.702;9.410;2022-11-23T04:06:49;3.13;;;1.67;;
5869;SDS011;2961;47.702;9.410;2022-11-23T04:09:17;1.40;;;1.30;;
5869;SDS011;2961;47.702;9.410;2022-11-23T04:11:44;1.67;;;1.60;;
5869;SDS011;2961;47.702;9.410;2022-11-23T04:14:11;4.73;;;1.93;;
5869;SDS011;2961;47.702;9.410;2022-11-23T04:16:38;3.00;;;2.80;;
5869;SDS011;2961;47.702;9.410;2022-11-23T04:19:04;4.10;;;3.20;;
5869;SDS011;2961;47.702;9.410;2022-11-23T04:21:31;4.03;;;2.90;;
5869;SDS011;2961;47.702;9.410;2022-11-23T04:23:58;2.20;;;1.63;;
5869;SDS011;2961;47.702;9.410;2022-11-23T04:26:26;1.90;;;1.80;;
5869;SDS011;2961;47.702;9.410;2022-11-23T04:28:53;2.80;;;1.80;;
5869;SDS011;2961;47.702;9.410;2022-11-23T04:31:20;7.13;;;2.50;;
5869;SDS011;2961;47.702;9.410;2022-11-23T04:33:46;1.57;;;1.30;;
5869;SDS011;2961;47.702;9.410;2022-11-23T04:36:13;12.33;;;2.00;;
5869;SDS011;2961;47.702;9.410;2022-11-23T04:38:40;1.63;;;1.53;;
5869;SDS011;2961;47.702;9.410;2022-11-23T04:41:07;2.10;;;1.80;;
5869;SDS011;2961;47.702;9.410;2022-11-23T04:43:35;2.13;;;1.40;;
5869;SDS011;2961;47.702;9.410;2022-11-23T04:46:02;2.23;;;1.70;;
5869;SDS011;2961;47.702;9.410;2022-11-23T04:48:28;2.70;;;1.73;;
5869;SDS011;2961;47.702;9.410;2022-11-23T04:50:56;3.70;;;1.57;;
5869;SDS011;2961;47.702;9.410;2022-11-23T04:53:22;3.53;;;1.80;;
5869;SDS011;2961;47.702;9.410;2022-11-23T04:55:49;1.50;;;1.40;;
5869;SDS011;2961;47.702;9.410;2022-11-23T04:58:16;5.47;;;1.80;;
5869;SDS011;2961;47.702;9.410;2022-11-23T05:00:44;1.67;;;1.23;;
5869;SDS011;2961;47.702;9.410;2022-11-23T05:03:11;4.20;;;1.57;;
5869;SDS011;2961;47.702;9.410;2022-11-23T05:05:38;5.23;;;1.77;;
5869;SDS011;2961;47.702;9.410;2022-11-23T05:08:05;2.00;;;1.50;;
5869;SDS011;2961;47.702;9.410;2022-11-23T05:10:33;9.13;;;1.90;;
5869;SDS011;2961;47.702;9.410;2022-11-23T05:13:00;1.60;;;1.50;;
5869;SDS011;2961;47.702;9.410;2022-11-23T05:15:27;7.40;;;2.03;;
5869;SDS011;2961;47.702;9.410;2022-11-23T05:18:00;6.93;;;2.17;;
5869;SDS011;2961;47.702;9.410;2022-11-23T05:20:27;3.27;;;1.60;;
5869;SDS011;2961;47.702;9.410;2022-11-23T05:22:54;2.97;;;1.30;;
5869;SDS011;2961;47.702;9.410;2022-11-23T05:25:20;1.60;;;1.50;;
5869;SDS011;2961;47.702;9.410;2022-11-23T05:27:47;4.30;;;1.60;;
5869;SDS011;2961;47.702;9.410;2022-11-23T05:30:14;2.63;;;1.40;;
5869;SDS011;2961;47.702;9.410;2022-11-23T05:32:41;3.03;;;1.83;;
5869;SDS011;2961;47.702;9.410;2022-11-23T05:35:09;2.13;;;2.03;;
5869;SDS011;2961;47.702;9.410;2022-11-23T05:37:36;2.50;;;1.80;;
5869;SDS011;2961;47.702;9.410;2022-11-23T05:40:04;3.10;;;1.40;;
5869;SDS011;2961;47.702;9.410;2022-11-23T05:42:32;1.90;;;1.50;;
5869;SDS011;2961;47.702;9.410;2022-11-23T05:44:58;1.50;;;1.50;;
5869;SDS011;2961;47.702;9.410;2022-11-23T05:47:25;6.10;;;1.37;;
5869;SDS011;2961;47.702;9.410;2022-11-23T05:49:52;1.60;;;1.50;;
5869;SDS011;2961;47.702;9.410;2022-11-23T05:52:20;2.20;;;1.40;;
5869;SDS011;2961;47.702;9.410;2022-11-23T05:54:49;1.80;;;1.50;;
5869;SDS011;2961;47.702;9.410;2022-11-23T05:57:16;1.20;;;1.20;;
5869;SDS011;2961;47.702;9.410;2022-11-23T05:59:43;1.43;;;1.33;;
5869;SDS011;2961;47.702;9.410;2022-11-23T06:02:10;2.40;;;1.60;;
5869;SDS011;2961;47.702;9.410;2022-11-23T06:04:37;7.73;;;1.30;;
5869;SDS011;2961;47.702;9.410;2022-11-23T06:07:03;1.60;;;1.50;;
5869;SDS011;2961;47.702;9.410;2022-11-23T06:09:32;1.77;;;1.70;;
5869;SDS011;2961;47.702;9.410;2022-11-23T06:11:58;8.13;;;2.00;;
5869;SDS011;2961;47.702;9.410;2022-11-23T06:14:25;9.63;;;2.30;;
5869;SDS011;2961;47.702;9.410;2022-11-23T06:16:52;3.50;;;1.70;;
5869;SDS011;2961;47.702;9.410;2022-11-23T06:19:18;3.33;;;1.90;;
5869;SDS011;2961;47.702;9.410;2022-11-23T06:21:46;2.90;;;1.88;;
5869;SDS011;2961;47.702;9.410;2022-11-23T06:24:13;3.27;;;1.70;;
5869;SDS011;2961;47.702;9.410;2022-11-23T06:26:41;1.60;;;1.50;;
5869;SDS011;2961;47.702;9.410;2022-11-23T06:29:08;2.00;;;1.43;;
5869;SDS011;2961;47.702;9.410;2022-11-23T06:31:34;2.80;;;2.20;;
5869;SDS011;2961;47.702;9.410;2022-11-23T06:34:01;4.33;;;2.30;;
5869;SDS011;2961;47.702;9.410;2022-11-23T06:36:28;2.63;;;2.10;;
5869;SDS011;2961;47.702;9.410;2022-11-23T06:38:55;4.23;;;2.40;;
5869;SDS011;2961;47.702;9.410;2022-11-23T06:41:21;2.13;;;2.00;;
5869;SDS011;2961;47.702;9.410;2022-11-23T06:43:50;2.57;;;2.37;;
5869;SDS011;2961;47.702;9.410;2022-11-23T06:46:17;3.50;;;2.37;;
5869;SDS011;2961;47.702;9.410;2022-11-23T06:48:44;2.67;;;2.00;;
5869;SDS011;2961;47.702;9.410;2022-11-23T06:51:11;1.93;;;1.83;;
5869;SDS011;2961;47.702;9.410;2022-11-23T06:53:38;4.07;;;1.80;;
5869;SDS011;2961;47.702;9.410;2022-11-23T06:56:06;4.60;;;1.90;;
5869;SDS011;2961;47.702;9.410;2022-11-23T06:58:33;2.13;;;1.93;;
5869;SDS011;2961;47.702;9.410;2022-11-23T07:01:02;2.60;;;2.40;;
5869;SDS011;2961;47.702;9.410;2022-11-23T07:03:30;3.87;;;2.33;;
5869;SDS011;2961;47.702;9.410;2022-11-23T07:05:57;2.10;;;1.90;;
5869;SDS011;2961;47.702;9.410;2022-11-23T07:08:24;4.60;;;2.23;;
5869;SDS011;2961;47.702;9.410;2022-11-23T07:10:52;2.43;;;2.20;;
5869;SDS011;2961;47.702;9.410;2022-11-23T07:13:19;19.23;;;3.00;;
5869;SDS011;2961;47.702;9.410;2022-11-23T07:15:45;13.10;;;2.20;;
5869;SDS011;2961;47.702;9.410;2022-11-23T07:18:13;2.90;;;1.93;;
5869;SDS011;2961;47.702;9.410;2022-11-23T07:20:40;3.43;;;2.03;;
5869;SDS011;2961;47.702;9.410;2022-11-23T07:23:09;4.50;;;2.30;;
5869;SDS011;2961;47.702;9.410;2022-11-23T07:25:36;4.67;;;1.40;;
5869;SDS011;2961;47.702;9.410;2022-11-23T07:28:04;5.63;;;3.20;;
5869;SDS011;2961;47.702;9.410;2022-11-23T07:30:32;7.50;;;4.87;;
5869;SDS011;2961;47.702;9.410;2022-11-23T07:33:00;6.93;;;5.00;;
5869;SDS011;2961;47.702;9.410;2022-11-23T07:35:30;10.97;;;4.20;;
5869;SDS011;2961;47.702;9.410;2022-11-23T07:37:57;6.10;;;3.03;;
5869;SDS011;2961;47.702;9.410;2022-11-23T07:40:24;12.63;;;2.57;;
5869;SDS011;2961;47.702;9.410;2022-11-23T07:42:51;4.70;;;2.73;;
5869;SDS011;2961;47.702;9.410;2022-11-23T07:45:18;2.97;;;2.63;;
5869;SDS011;2961;47.702;9.410;2022-11-23T07:47:45;4.93;;;3.00;;
5869;SDS011;2961;47.702;9.410;2022-11-23T07:50:11;5.20;;;2.50;;
5869;SDS011;2961;47.702;9.410;2022-11-23T07:52:40;55.40;;;6.70;;
5869;SDS011;2961;47.702;9.410;2022-11-23T07:55:07;4.20;;;3.17;;
5869;SDS011;2961;47.702;9.410;2022-11-23T07:57:34;18.60;;;3.50;;
5869;SDS011;2961;47.702;9.410;2022-11-23T08:00:01;5.47;;;3.13;;
5869;SDS011;2961;47.702;9.410;2022-11-23T08:02:29;5.43;;;3.77;;
5869;SDS011;2961;47.702;9.410;2022-11-23T08:04:55;4.43;;;4.03;;
5869;SDS011;2961;47.702;9.410;2022-11-23T08:07:22;7.70;;;5.20;;
5869;SDS011;2961;47.702;9.410;2022-11-23T08:09:50;9.23;;;4.60;;
5869;SDS011;2961;47.702;9.410;2022-11-23T08:12:17;5.17;;;4.00;;
5869;SDS011;2961;47.702;9.410;2022-11-23T08:14:44;6.17;;;3.90;;
5869;SDS011;2961;47.702;9.410;2022-11-23T08:17:10;7.03;;;4.03;;
5869;SDS011;2961;47.702;9.410;2022-11-23T08:19:37;15.40;;;4.47;;
5869;SDS011;2961;47.702;9.410;2022-11-23T08:22:04;4.73;;;3.40;;
5869;SDS011;2961;47.702;9.410;2022-11-23T08:24:31;7.53;;;3.53;;
5869;SDS011;2961;47.702;9.410;2022-11-23T08:26:59;3.03;;;2.73;;
5869;SDS011;2961;47.702;9.410;2022-11-23T08:29:25;4.67;;;3.50;;
5869;SDS011;2961;47.702;9.410;2022-11-23T08:31:52;4.10;;;2.97;;
5869;SDS011;2961;47.702;9.410;2022-11-23T08:34:19;3.10;;;2.87;;
5869;SDS011;2961;47.702;9.410;2022-11-23T08:36:46;5.70;;;3.70;;
5869;SDS011;2961;47.702;9.410;2022-11-23T08:39:13;3.70;;;2.60;;
5869;SDS011;2961;47.702;9.410;2022-11-23T08:41:41;3.53;;;3.00;;
5869;SDS011;2961;47.702;9.410;2022-11-23T08:44:09;5.27;;;2.30;;
5869;SDS011;2961;47.702;9.410;2022-11-23T08:46:36;5.73;;;2.90;;
5869;SDS011;2961;47.702;9.410;2022-11-23T08:49:03;4.83;;;3.30;;
5869;SDS011;2961;47.702;9.410;2022-11-23T08:51:31;3.50;;;2.77;;
5869;SDS011;2961;47.702;9.410;2022-11-23T08:53:58;4.23;;;3.13;;
5869;SDS011;2961;47.702;9.410;2022-11-23T08:56:25;3.30;;;3.00;;
5869;SDS011;2961;47.702;9.410;2022-11-23T08:58:51;3.53;;;2.87;;
5869;SDS011;2961;47.702;9.410;2022-11-23T09:01:20;6.57;;;3.40;;
5869;SDS011;2961;47.702;9.410;2022-11-23T09:03:46;4.40;;;3.03;;
5869;SDS011;2961;47.702;9.410;2022-11-23T09:06:13;3.20;;;2.63;;
5869;SDS011;2961;47.702;9.410;2022-11-23T09:08:40;3.30;;;3.00;;
5869;SDS011;2961;47.702;9.410;2022-11-23T09:11:08;3.70;;;2.90;;
5869;SDS011;2961;47.702;9.410;2022-11-23T09:13:37;3.23;;;2.90;;
5869;SDS011;2961;47.702;9.410;2022-11-23T09:16:05;8.13;;;3.00;;
5869;SDS011;2961;47.702;9.410;2022-11-23T09:18:33;5.27;;;2.80;;
5869;SDS011;2961;47.702;9.410;2022-11-23T09:21:00;6.43;;;2.80;;
5869;SDS011;2961;47.702;9.410;2022-11-23T09:23:28;2.70;;;2.33;;
5869;SDS011;2961;47.702;9.410;2022-11-23T09:25:56;3.90;;;3.00;;
5869;SDS011;2961;47.702;9.410;2022-11-23T09:28:24;4.83;;;2.97;;
5869;SDS011;2961;47.702;9.410;2022-11-23T09:30:51;7.47;;;2.67;;
5869;SDS011;2961;47.702;9.410;2022-11-23T09:33:19;3.10;;;2.90;;
5869;SDS011;2961;47.702;9.410;2022-11-23T09:35:53;2.43;;;2.23;;
5869;SDS011;2961;47.702;9.410;2022-11-23T09:38:21;4.40;;;2.53;;
5869;SDS011;2961;47.702;9.410;2022-11-23T09:40:48;5.60;;;2.23;;
5869;SDS011;2961;47.702;9.410;2022-11-23T09:43:31;3.60;;;2.40;;
5869;SDS011;2961;47.702;9.410;2022-11-23T09:46:09;2.90;;;2.03;;
5869;SDS011;2961;47.702;9.410;2022-11-23T09:48:47;3.30;;;2.03;;
5869;SDS011;2961;47.702;9.410;2022-11-23T09:51:22;4.43;;;2.37;;
5869;SDS011;2961;47.702;9.410;2022-11-23T09:53:50;3.13;;;1.50;;
5869;SDS011;2961;47.702;9.410;2022-11-23T09:56:21;2.10;;;1.97;;
5869;SDS011;2961;47.702;9.410;2022-11-23T09:58:53;7.00;;;2.70;;
5869;SDS011;2961;47.702;9.410;2022-11-23T10:01:21;1.20;;;1.20;;
5869;SDS011;2961;47.702;9.410;2022-11-23T10:03:48;3.47;;;1.80;;
5869;SDS011;2961;47.702;9.410;2022-11-23T10:06:16;1.87;;;1.70;;
5869;SDS011;2961;47.702;9.410;2022-11-23T10:08:48;5.20;;;1.47;;
5869;SDS011;2961;47.702;9.410;2022-11-23T10:14:27;1.73;;;1.63;;
5869;SDS011;2961;47.702;9.410;2022-11-23T10:17:07;1.20;;;1.00;;
5869;SDS011;2961;47.702;9.410;2022-11-23T10:19:46;1.63;;;1.43;;
5869;SDS011;2961;47.702;9.410;2022-11-23T10:22:25;1.63;;;1.20;;
5869;SDS011;2961;47.702;9.410;2022-11-23T10:24:57;1.20;;;1.20;;
5869;SDS011;2961;47.702;9.410;2022-11-23T10:27:28;1.07;;;1.07;;
5869;SDS011;2961;47.702;9.410;2022-11-23T10:29:56;0.77;;;0.77;;
5869;SDS011;2961;47.702;9.410;2022-11-23T10:32:25;1.83;;;1.47;;
5869;SDS011;2961;47.702;9.410;2022-11-23T10:34:57;4.70;;;1.30;;
5869;SDS011;2961;47.702;9.410;2022-11-23T10:37:28;4.50;;;1.00;;
5869;SDS011;2961;47.702;9.410;2022-11-23T10:39:56;1.47;;;1.20;;
5869;SDS011;2961;47.702;9.410;2022-11-23T10:42:23;2.20;;;1.27;;
5869;SDS011;2961;47.702;9.410;2022-11-23T10:44:55;1.43;;;1.20;;
5869;SDS011;2961;47.702;9.410;2022-11-23T10:47:35;3.93;;;1.60;;
5869;SDS011;2961;47.702;9.410;2022-11-23T10:50:18;2.20;;;1.10;;
5869;SDS011;2961;47.702;9.410;2022-11-23T10:52:50;1.93;;;1.10;;
5869;SDS011;2961;47.702;9.410;2022-11-23T10:55:23;1.87;;;1.20;;
5869;SDS011;2961;47.702;9.410;2022-11-23T10:57:53;1.30;;;1.20;;
5869;SDS011;2961;47.702;9.410;2022-11-23T11:00:20;2.27;;;1.40;;
5869;SDS011;2961;47.702;9.410;2022-11-23T11:02:49;1.40;;;1.30;;
5869;SDS011;2961;47.702;9.410;2022-11-23T11:05:24;3.03;;;1.20;;
5869;SDS011;2961;47.702;9.410;2022-11-23T11:07:56;3.07;;;1.40;;
5869;SDS011;2961;47.702;9.410;2022-11-23T11:13:23;1.80;;;1.70;;
5869;SDS011;2961;47.702;9.410;2022-11-23T11:15:52;4.93;;;1.40;;
5869;SDS011;2961;47.702;9.410;2022-11-23T11:18:20;1.90;;;1.47;;
5869;SDS011;2961;47.702;9.410;2022-11-23T11:20:54;7.43;;;1.40;;
5869;SDS011;2961;47.702;9.410;2022-11-23T11:23:22;1.40;;;1.20;;
5869;SDS011;2961;47.702;9.410;2022-11-23T11:26:00;2.60;;;1.80;;
5869;SDS011;2961;47.702;9.410;2022-11-23T11:28:37;4.63;;;1.70;;
5869;SDS011;2961;47.702;9.410;2022-11-23T11:34:02;1.73;;;1.63;;
5869;SDS011;2961;47.702;9.410;2022-11-23T11:36:36;5.50;;;1.40;;
5869;SDS011;2961;47.702;9.410;2022-11-23T11:39:09;1.23;;;1.23;;
5869;SDS011;2961;47.702;9.410;2022-11-23T11:41:41;1.53;;;1.17;;
5869;SDS011;2961;47.702;9.410;2022-11-23T11:44:12;2.83;;;1.17;;
5869;SDS011;2961;47.702;9.410;2022-11-23T11:46:45;2.77;;;1.27;;
5869;SDS011;2961;47.702;9.410;2022-11-23T11:49:17;4.07;;;1.97;;
5869;SDS011;2961;47.702;9.410;2022-11-23T11:51:48;2.67;;;1.80;;
5869;SDS011;2961;47.702;9.410;2022-11-23T11:54:20;2.33;;;1.50;;
5869;SDS011;2961;47.702;9.410;2022-11-23T11:56:56;1.47;;;1.37;;
5869;SDS011;2961;47.702;9.410;2022-11-23T11:59:28;1.97;;;1.87;;
5869;SDS011;2961;47.702;9.410;2022-11-23T12:01:59;5.47;;;1.23;;
5869;SDS011;2961;47.702;9.410;2022-11-23T12:04:42;2.37;;;2.13;;
5869;SDS011;2961;47.702;9.410;2022-11-23T12:07:15;1.70;;;1.43;;
5869;SDS011;2961;47.702;9.410;2022-11-23T12:09:47;0.90;;;0.90;;
5869;SDS011;2961;47.702;9.410;2022-11-23T12:12:22;1.77;;;1.03;;
5869;SDS011;2961;47.702;9.410;2022-11-23T12:14:48;1.63;;;0.93;;
5869;SDS011;2961;47.702;9.410;2022-11-23T12:17:23;0.60;;;0.60;;
5869;SDS011;2961;47.702;9.410;2022-11-23T12:20:07;5.83;;;1.33;;
5869;SDS011;2961;47.702;9.410;2022-11-23T12:22:41;5.87;;;1.10;;
5869;SDS011;2961;47.702;9.410;2022-11-23T12:25:21;2.27;;;0.87;;
5869;SDS011;2961;47.702;9.410;2022-11-23T12:27:58;2.10;;;1.03;;
5869;SDS011;2961;47.702;9.410;2022-11-23T12:30:35;3.00;;;1.00;;
5869;SDS011;2961;47.702;9.410;2022-11-23T12:33:16;0.53;;;0.53;;
5869;SDS011;2961;47.702;9.410;2022-11-23T12:36:08;0.80;;;0.80;;
5869;SDS011;2961;47.702;9.410;2022-11-23T12:38:53;1.10;;;0.73;;
5869;SDS011;2961;47.702;9.410;2022-11-23T12:41:22;0.80;;;0.60;;
5869;SDS011;2961;47.702;9.410;2022-11-23T12:44:12;4.00;;;0.90;;
5869;SDS011;2961;47.702;9.410;2022-11-23T12:46:57;1.30;;;0.97;;
5869;SDS011;2961;47.702;9.410;2022-11-23T12:49:32;3.50;;;0.80;;
5869;SDS011;2961;47.702;9.410;2022-11-23T12:52:09;0.63;;;0.60;;
5869;SDS011;2961;47.702;9.410;2022-11-23T12:55:00;0.80;;;0.80;;
5869;SDS011;2961;47.702;9.410;2022-11-23T12:57:33;1.17;;;0.70;;
5869;SDS011;2961;47.702;9.410;2022-11-23T13:00:13;0.93;;;0.90;;
5869;SDS011;2961;47.702;9.410;2022-11-23T13:03:14;0.80;;;0.80;;
5869;SDS011;2961;47.702;9.410;2022-11-23T13:06:14;0.90;;;0.90;;
5869;SDS011;2961;47.702;9.410;2022-11-23T13:09:25;2.10;;;0.80;;
5869;SDS011;2961;47.702;9.410;2022-11-23T13:12:15;2.50;;;0.60;;
5869;SDS011;2961;47.702;9.410;2022-11-23T13:15:15;2.20;;;0.70;;
5869;SDS011;2961;47.702;9.410;2022-11-23T13:17:53;2.30;;;0.70;;
5869;SDS011;2961;47.702;9.410;2022-11-23T13:20:28;1.57;;;0.80;;
5869;SDS011;2961;47.702;9.410;2022-11-23T13:23:08;1.13;;;1.03;;
5869;SDS011;2961;47.702;9.410;2022-11-23T13:25:36;3.20;;;0.90;;
5869;SDS011;2961;47.702;9.410;2022-11-23T13:28:02;2.73;;;1.10;;
5869;SDS011;2961;47.702;9.410;2022-11-23T13:30:32;0.93;;;0.67;;
5869;SDS011;2961;47.702;9.410;2022-11-23T13:33:01;2.67;;;1.03;;
5869;SDS011;2961;47.702;9.410;2022-11-23T13:35:47;0.80;;;0.80;;
5869;SDS011;2961;47.702;9.410;2022-11-23T13:38:25;3.60;;;0.90;;
5869;SDS011;2961;47.702;9.410;2022-11-23T13:44:20;0.83;;;0.70;;
5869;SDS011;2961;47.702;9.410;2022-11-23T13:47:00;2.17;;;1.00;;
5869;SDS011;2961;47.702;9.410;2022-11-23T13:49:33;0.80;;;0.60;;
5869;SDS011;2961;47.702;9.410;2022-11-23T13:52:13;2.43;;;0.70;;
5869;SDS011;2961;47.702;9.410;2022-11-23T13:55:05;2.10;;;1.20;;
5869;SDS011;2961;47.702;9.410;2022-11-23T13:57:45;2.20;;;1.03;;
5869;SDS011;2961;47.702;9.410;2022-11-23T14:00:47;1.90;;;1.20;;
5869;SDS011;2961;47.702;9.410;2022-11-23T14:06:14;5.23;;;0.90;;
5869;SDS011;2961;47.702;9.410;2022-11-23T14:08:52;0.80;;;0.77;;
5869;SDS011;2961;47.702;9.410;2022-11-23T14:11:26;1.23;;;1.10;;
5869;SDS011;2961;47.702;9.410;2022-11-23T14:13:56;0.93;;;0.90;;
5869;SDS011;2961;47.702;9.410;2022-11-23T14:16:32;1.70;;;1.60;;
5869;SDS011;2961;47.702;9.410;2022-11-23T14:19:16;2.37;;;1.30;;
5869;SDS011;2961;47.702;9.410;2022-11-23T14:21:50;1.37;;;0.97;;
5869;SDS011;2961;47.702;9.410;2022-11-23T14:24:48;1.30;;;0.90;;
5869;SDS011;2961;47.702;9.410;2022-11-23T14:27:37;1.63;;;1.13;;
5869;SDS011;2961;47.702;9.410;2022-11-23T14:30:15;1.37;;;1.20;;
5869;SDS011;2961;47.702;9.410;2022-11-23T14:33:06;2.20;;;0.90;;
5869;SDS011;2961;47.702;9.410;2022-11-23T14:35:48;1.47;;;0.80;;
5869;SDS011;2961;47.702;9.410;2022-11-23T14:38:30;0.73;;;0.73;;
5869;SDS011;2961;47.702;9.410;2022-11-23T14:41:18;3.80;;;1.10;;
5869;SDS011;2961;47.702;9.410;2022-11-23T14:43:47;1.23;;;0.67;;
5869;SDS011;2961;47.702;9.410;2022-11-23T14:46:16;2.00;;;0.93;;
5869;SDS011;2961;47.702;9.410;2022-11-23T14:48:44;2.87;;;0.80;;
5869;SDS011;2961;47.702;9.410;2022-11-23T14:51:13;2.77;;;0.83;;
5869;SDS011;2961;47.702;9.410;2022-11-23T14:53:43;0.70;;;0.70;;
5869;SDS011;2961;47.702;9.410;2022-11-23T14:56:20;1.17;;;0.70;;
5869;SDS011;2961;47.702;9.410;2022-11-23T14:58:50;4.13;;;0.97;;
5869;SDS011;2961;47.702;9.410;2022-11-23T15:01:18;6.73;;;1.00;;
5869;SDS011;2961;47.702;9.410;2022-11-23T15:03:54;6.73;;;0.90;;
5869;SDS011;2961;47.702;9.410;2022-11-23T15:06:24;10.03;;;1.53;;
5869;SDS011;2961;47.702;9.410;2022-11-23T15:08:59;3.60;;;0.60;;
5869;SDS011;2961;47.702;9.410;2022-11-23T15:11:32;1.43;;;0.60;;
5869;SDS011;2961;47.702;9.410;2022-11-23T15:14:01;2.22;;;1.00;;
5869;SDS011;2961;47.702;9.410;2022-11-23T15:16:28;2.07;;;1.20;;
5869;SDS011;2961;47.702;9.410;2022-11-23T15:19:15;1.40;;;1.00;;
5869;SDS011;2961;47.702;9.410;2022-11-23T15:21:45;2.03;;;0.70;;
5869;SDS011;2961;47.702;9.410;2022-11-23T15:24:19;0.80;;;0.80;;
5869;SDS011;2961;47.702;9.410;2022-11-23T15:26:47;4.83;;;0.77;;
5869;SDS011;2961;47.702;9.410;2022-11-23T15:29:26;1.13;;;0.80;;
5869;SDS011;2961;47.702;9.410;2022-11-23T15:32:01;7.80;;;1.10;;
5869;SDS011;2961;47.702;9.410;2022-11-23T15:34:29;1.17;;;1.03;;
5869;SDS011;2961;47.702;9.410;2022-11-23T15:37:00;4.50;;;1.00;;
5869;SDS011;2961;47.702;9.410;2022-11-23T15:39:27;7.73;;;0.87;;
5869;SDS011;2961;47.702;9.410;2022-11-23T15:42:03;2.40;;;0.70;;
5869;SDS011;2961;47.702;9.410;2022-11-23T15:44:30;3.67;;;0.80;;
5869;SDS011;2961;47.702;9.410;2022-11-23T15:46:59;0.80;;;0.77;;
5869;SDS011;2961;47.702;9.410;2022-11-23T15:49:29;3.33;;;0.70;;